sensor_id;sensor_type;location;lat;lon;timestamp;temperature;humidity
66623;DHT22;53493;50.888;20.650;2024-03-08T00:00:03;29;77
66623;DHT22;53493;50.888;20.650;2024-03-08T00:10:15;29;77
66623;DHT22;53493;50.888;20.650;2024-03-08T00:20:18;29;77
66623;DHT22;53493;50.888;20.650;2024-03-08T00:30:09;29;77
66623;DHT22;53493;50.888;20.650;2024-03-08T00:40:06;29;77
66623;DHT22;53493;50.888;20.650;2024-03-08T00:50:02;29;77
66623;DHT22;53493;50.888;20.650;2024-03-08T01:00:13;29;77
66623;DHT22;53493;50.888;20.650;2024-03-08T01:10:14;29;77
66623;DHT22;53493;50.888;20.650;2024-03-08T01:20:03;29;77
66623;DHT22;53493;50.888;20.650;2024-03-08T01:30:10;29;77
66623;DHT22;53493;50.888;20.650;2024-03-08T01:40:02;28;79
66623;DHT22;53493;50.888;20.650;2024-03-08T01:50:09;28;79
66623;DHT22;53493;50.888;20.650;2024-03-08T02:00:18;28;79
66623;DHT22;53493;50.888;20.650;2024-03-08T02:10:14;28;79
66623;DHT22;53493;50.888;20.650;2024-03-08T02:20:20;28;79
66623;DHT22;53493;50.888;20.650;2024-03-08T02:30:18;28;79
66623;DHT22;53493;50.888;20.650;2024-03-08T02:40:11;28;79
66623;DHT22;53493;50.888;20.650;2024-03-08T02:50:16;28;79
66623;DHT22;53493;50.888;20.650;2024-03-08T03:00:06;28;79
66623;DHT22;53493;50.888;20.650;2024-03-08T03:10:03;28;79
66623;DHT22;53493;50.888;20.650;2024-03-08T03:20:27;28;79
66623;DHT22;53493;50.888;20.650;2024-03-08T03:30:02;28;79
66623;DHT22;53493;50.888;20.650;2024-03-08T03:40:12;27;79
66623;DHT22;53493;50.888;20.650;2024-03-08T03:50:14;27;79
66623;DHT22;53493;50.888;20.650;2024-03-08T04:00:14;27;79
66623;DHT22;53493;50.888;20.650;2024-03-08T04:10:12;28.43;74
66623;DHT22;53493;50.888;20.650;2024-03-08T04:20:15;28.43;74
66623;DHT22;53493;50.888;20.650;2024-03-08T04:30:09;28.43;74
66623;DHT22;53493;50.888;20.650;2024-03-08T04:40:13;28.43;74
66623;DHT22;53493;50.888;20.650;2024-03-08T04:50:08;28.43;74
66623;DHT22;53493;50.888;20.650;2024-03-08T05:00:21;28.43;74
66623;DHT22;53493;50.888;20.650;2024-03-08T05:10:05;28.83;72
66623;DHT22;53493;50.888;20.650;2024-03-08T05:20:20;28.83;72
66623;DHT22;53493;50.888;20.650;2024-03-08T05:30:22;28.83;72
66623;DHT22;53493;50.888;20.650;2024-03-08T05:40:10;28.51;71
66623;DHT22;53493;50.888;20.650;2024-03-08T05:50:16;28.51;71
66623;DHT22;53493;50.888;20.650;2024-03-08T06:00:06;28.51;71
66623;DHT22;53493;50.888;20.650;2024-03-08T06:10:18;28;68
66623;DHT22;53493;50.888;20.650;2024-03-08T06:20:15;28;68
66623;DHT22;53493;50.888;20.650;2024-03-08T06:30:11;28;68
66623;DHT22;53493;50.888;20.650;2024-03-08T06:40:19;28;68
66623;DHT22;53493;50.888;20.650;2024-03-08T06:50:12;28;68
66623;DHT22;53493;50.888;20.650;2024-03-08T07:00:11;28;68
66623;DHT22;53493;50.888;20.650;2024-03-08T07:10:02;28;68
66623;DHT22;53493;50.888;20.650;2024-03-08T07:20:21;28;68
66623;DHT22;53493;50.888;20.650;2024-03-08T07:30:11;28;68
66623;DHT22;53493;50.888;20.650;2024-03-08T07:40:09;28.73;68
66623;DHT22;53493;50.888;20.650;2024-03-08T07:50:12;28.73;68
66623;DHT22;53493;50.888;20.650;2024-03-08T08:00:09;28.73;68
66623;DHT22;53493;50.888;20.650;2024-03-08T08:10:08;28.84;68
66623;DHT22;53493;50.888;20.650;2024-03-08T08:20:07;28.84;68
66623;DHT22;53493;50.888;20.650;2024-03-08T08:30:03;28.84;68
66623;DHT22;53493;50.888;20.650;2024-03-08T08:40:23;28.92;68
66623;DHT22;53493;50.888;20.650;2024-03-08T08:50:15;28.92;68
66623;DHT22;53493;50.888;20.650;2024-03-08T09:00:27;28.92;68
66623;DHT22;53493;50.888;20.650;2024-03-08T09:10:07;28;68
66623;DHT22;53493;50.888;20.650;2024-03-08T09:20:18;28;68
66623;DHT22;53493;50.888;20.650;2024-03-08T09:30:10;28;68
66623;DHT22;53493;50.888;20.650;2024-03-08T09:40:10;28;68
66623;DHT22;53493;50.888;20.650;2024-03-08T09:50:13;28;68
66623;DHT22;53493;50.888;20.650;2024-03-08T10:00:27;28;68
66623;DHT22;53493;50.888;20.650;2024-03-08T10:10:14;28;67
66623;DHT22;53493;50.888;20.650;2024-03-08T10:20:21;28;67
66623;DHT22;53493;50.888;20.650;2024-03-08T10:30:15;28;67
66623;DHT22;53493;50.888;20.650;2024-03-08T10:40:21;28;66
66623;DHT22;53493;50.888;20.650;2024-03-08T10:50:18;28;66
66623;DHT22;53493;50.888;20.650;2024-03-08T11:00:32;28;66
66623;DHT22;53493;50.888;20.650;2024-03-08T11:10:28;28;66
66623;DHT22;53493;50.888;20.650;2024-03-08T11:20:28;28;66
66623;DHT22;53493;50.888;20.650;2024-03-08T11:30:28;28;66
66623;DHT22;53493;50.888;20.650;2024-03-08T11:40:24;28;66
66623;DHT22;53493;50.888;20.650;2024-03-08T11:50:11;28;66
66623;DHT22;53493;50.888;20.650;2024-03-08T12:00:33;28;66
66623;DHT22;53493;50.888;20.650;2024-03-08T12:10:30;28.96;67
66623;DHT22;53493;50.888;20.650;2024-03-08T12:20:15;28.96;67
66623;DHT22;53493;50.888;20.650;2024-03-08T12:30:34;28.96;67
66623;DHT22;53493;50.888;20.650;2024-03-08T12:40:09;29;67
66623;DHT22;53493;50.888;20.650;2024-03-08T12:50:11;29;67
66623;DHT22;53493;50.888;20.650;2024-03-08T13:00:04;29;67
66623;DHT22;53493;50.888;20.650;2024-03-08T13:10:15;29;67
66623;DHT22;53493;50.888;20.650;2024-03-08T13:20:07;29;67
66623;DHT22;53493;50.888;20.650;2024-03-08T13:30:08;29;67
66623;DHT22;53493;50.888;20.650;2024-03-08T13:40:19;29;67
66623;DHT22;53493;50.888;20.650;2024-03-08T13:50:13;29;67
66623;DHT22;53493;50.888;20.650;2024-03-08T14:00:10;29;67
66623;DHT22;53493;50.888;20.650;2024-03-08T14:20:15;29;69
66623;DHT22;53493;50.888;20.650;2024-03-08T14:30:02;29;69
66623;DHT22;53493;50.888;20.650;2024-03-08T14:40:07;29;69
66623;DHT22;53493;50.888;20.650;2024-03-08T14:50:15;29;69
66623;DHT22;53493;50.888;20.650;2024-03-08T15:00:34;29;69
66623;DHT22;53493;50.888;20.650;2024-03-08T15:10:11;29;70
66623;DHT22;53493;50.888;20.650;2024-03-08T15:20:17;29;70
66623;DHT22;53493;50.888;20.650;2024-03-08T15:30:31;29;70
66623;DHT22;53493;50.888;20.650;2024-03-08T15:40:03;28;71
66623;DHT22;53493;50.888;20.650;2024-03-08T15:50:21;28;71
66623;DHT22;53493;50.888;20.650;2024-03-08T16:00:14;28;71
66623;DHT22;53493;50.888;20.650;2024-03-08T16:10:10;28;71
66623;DHT22;53493;50.888;20.650;2024-03-08T16:20:17;28;71
66623;DHT22;53493;50.888;20.650;2024-03-08T16:30:16;28;71
66623;DHT22;53493;50.888;20.650;2024-03-08T16:40:21;28;71
66623;DHT22;53493;50.888;20.650;2024-03-08T16:50:06;28;71
66623;DHT22;53493;50.888;20.650;2024-03-08T17:00:14;28;71
66623;DHT22;53493;50.888;20.650;2024-03-08T17:20:28;28;71
66623;DHT22;53493;50.888;20.650;2024-03-08T17:30:32;28;71
66623;DHT22;53493;50.888;20.650;2024-03-08T17:50:02;28;72
66623;DHT22;53493;50.888;20.650;2024-03-08T18:00:26;28;72
66623;DHT22;53493;50.888;20.650;2024-03-08T18:30:07;28;72
66623;DHT22;53493;50.888;20.650;2024-03-08T18:50:07;28;73
66623;DHT22;53493;50.888;20.650;2024-03-08T19:00:37;28;73
66623;DHT22;53493;50.888;20.650;2024-03-08T19:10:22;28;73
66623;DHT22;53493;50.888;20.650;2024-03-08T19:20:29;28;73
66623;DHT22;53493;50.888;20.650;2024-03-08T19:30:11;28;73
66623;DHT22;53493;50.888;20.650;2024-03-08T19:40:19;28;73
66623;DHT22;53493;50.888;20.650;2024-03-08T19:50:09;28;73
66623;DHT22;53493;50.888;20.650;2024-03-08T20:00:16;28;73
66623;DHT22;53493;50.888;20.650;2024-03-08T20:10:22;28;73
66623;DHT22;53493;50.888;20.650;2024-03-08T20:20:21;28;73
66623;DHT22;53493;50.888;20.650;2024-03-08T20:30:23;28;73
66623;DHT22;53493;50.888;20.650;2024-03-08T20:40:12;28;73
66623;DHT22;53493;50.888;20.650;2024-03-08T20:50:14;28;73
66623;DHT22;53493;50.888;20.650;2024-03-08T21:00:21;28;73
66623;DHT22;53493;50.888;20.650;2024-03-08T21:10:11;28;73
66623;DHT22;53493;50.888;20.650;2024-03-08T21:20:09;28;74
66623;DHT22;53493;50.888;20.650;2024-03-08T21:30:19;28;74
66623;DHT22;53493;50.888;20.650;2024-03-08T21:40:02;28;74
66623;DHT22;53493;50.888;20.650;2024-03-08T21:50:19;28;75
66623;DHT22;53493;50.888;20.650;2024-03-08T22:00:03;28;75
66623;DHT22;53493;50.888;20.650;2024-03-08T22:10:03;28;75
66623;DHT22;53493;50.888;20.650;2024-03-08T22:20:03;28;75
66623;DHT22;53493;50.888;20.650;2024-03-08T22:30:10;28;75
66623;DHT22;53493;50.888;20.650;2024-03-08T22:40:11;28;75
66623;DHT22;53493;50.888;20.650;2024-03-08T22:50:16;28;76
66623;DHT22;53493;50.888;20.650;2024-03-08T23:00:02;28;76
66623;DHT22;53493;50.888;20.650;2024-03-08T23:10:14;28;76
66623;DHT22;53493;50.888;20.650;2024-03-08T23:20:17;28;76
66623;DHT22;53493;50.888;20.650;2024-03-08T23:30:24;28;76
66623;DHT22;53493;50.888;20.650;2024-03-08T23:40:02;28;76
66623;DHT22;53493;50.888;20.650;2024-03-08T23:50:22;28;76
